Emmanuel Julien

Chief Scout - Olympique Lyonnais
20 Feb 2028
Sunday
Process

Personality

Adaptability (14) Ambition (18) Controversy (15) Loyalty (9) Pressure (14) Professionalism (3) Sportsmanship (11) Temperament (5)

Profile

Coaching Style Democratic
License Continental C
Determination 14
Man Management 13
Motivating 13
Discipline 11
Job Satisfaction
100%
Fatigue
0%
Role Chief Scout
Wage 90.8K p/w
Contract 14.03.2029

Performance

Behaviour Good
Training Effectiveness
61%
Player Development
65%
Injury Prevention
65%
Tactical Implementation
75%

Recent Events

Attended a recruitment meeting now
Attended a recruitment meeting now
Recommended a transfer target now
Recommended a transfer target now
Recommended a transfer target now
Recommended a transfer target 7d ago
Recommended a transfer target 7d ago
Recommended a transfer target 7d ago

Currently Monitoring

128
Player Club Status Ability Confidence Watched Last Observed Latest Vote
Alexis Mac Allister Liverpool Active 165 / 171 40% 2 31.01.2028 -
Hamidou Makalou Stade Brestois Report Ready 113 / 123 65% 1 31.01.2028 -
Danilo Botafogo Lost 144 / 139 40% 1 31.01.2028 -
Vitinho Botafogo Active 139 / 127 40% 1 31.01.2028 -
André Wolverhampton Active 155 / 156 40% 2 25.01.2028 -
Sandro Tonali Tottenham Active 174 / 169 40% 1 25.01.2028 -
Igor Burnley Active 146 / 141 40% 1 25.01.2028 -
Georginio Rutter Brighton Active 148 / 149 40% 1 18.01.2028 -
Eli Junior Kroupi Bournemouth Active 145 / 152 40% 1 18.01.2028 -
Sindre Walle Egeli Udinese Active 136 / 143 40% 1 18.01.2028 -
Roberto Alvarado Borussia Mönchengladbach Lost 139 / 139 66% 1 01.01.2028 -
Maximiliano Araújo West Ham United Negotiating 148 / 148 69% 1 01.01.2028 -
Mao Hosoya Santos Active 134 / 135 67% 1 01.01.2028 Approve
João Pedro Chelsea Active 153 / 164 40% 1 31.12.2027 -
Kenan Yıldız Juventus Active 172 / 169 40% 1 31.12.2027 -
Igor Jesus Nottingham Forest Active 155 / 147 40% 1 31.12.2027 -
Ben Chayeel Hamada Dijon Active 106 / 109 42% 1 / 1m 17.11.2027 -
Alexis Ntamack Dijon Active 108 / 111 30% 1 / 1m 17.11.2027 -
Ange-Kévine Gnabo Bourg-Peronnas Active 83 / 86 30% 1 / 1m 15.09.2027 -
Manu Koné AS Roma Active 165 / 162 40% 6 17.08.2027 -
Billy Gilmour Napoli Active 153 / 153 40% 1 17.08.2027 -
Francis Gomez Cardiff City Active 116 / 110 40% 3 08.08.2027 -
Sascha Britschgi AC Milan Active 117 / 126 40% 1 08.08.2027 -
Lucas Bergvall Tottenham Active 150 / 155 40% 1 07.08.2027 -
Gonçalo Oliveira Benfica Active 121 / 127 40% 1 07.08.2027 -
Salvador Blopá Sporting CP Active 114 / 129 40% 5 04.08.2027 -
Bernardo Lima Porto Active 100 / 118 40% 1 04.08.2027 -
Simone Kosijer Triestina Active 107 / 112 40% 1 02.08.2027 -
Issa Yusuf Shooting Stars Active 102 / 92 40% 1 02.08.2027 -
Jan Bürger Northampton Town Active 111 / 124 40% 2 01.08.2027 -
Maldini Kacurri Grimsby Town Active 93 / 100 40% 2 01.08.2027 -
Zane Albarus Shrewsbury Town Active 94 / 103 40% 1 01.08.2027 -
Jenson Jones Walsall Active 105 / 104 40% 1 30.07.2027 -
Ollie Scarles West Ham United Active 140 / 132 40% 2 29.07.2027 -
Godwin Oham Warri Wolves Active 94 / 90 40% 1 29.07.2027 -
Rhys Chadwick AFC Wimbledon Active 100 / 110 40% 1 28.07.2027 -
Jorrel Hato Chelsea Active 147 / 156 40% 1 28.07.2027 -
Santiago Murillo Alianza Petrolera Active 121 / 140 40% 2 27.07.2027 -
Germán Barbas Burgos Active 114 / 113 40% 1 24.07.2027 -
Hosea Michael Remo Stars Active 77 / 82 40% 1 24.07.2027 -
Caleb Yirenkyi Coventry City Active 142 / 146 40% 1 23.07.2027 -
Lucas Høgsberg RC Strasbourg Active 145 / 150 40% 2 21.07.2027 -
Chari Giwa US Bougouni Active 82 / 69 40% 1 21.07.2027 -
Agustín De la Cuesta Racing Active 105 / 124 40% 1 20.07.2027 -
Rhys Walters Port Vale Active 112 / 113 40% 1 19.07.2027 -
Alpha Touré FC Metz Active 116 / 123 40% 1 05.07.2027 -
Tommaso Cecotti Carpi Active 97 / 94 40% 1 05.07.2027 -
Tyler Adams Bournemouth Active 154 / 160 40% 5 14.06.2027 -
Casper Tengstedt Toulouse FC Active 128 / 116 65% 1 14.06.2027 Approve
Jarrad Branthwaite Everton Active 160 / 158 40% 1 14.06.2027 -
Mats Wieffer Brighton Active 144 / 143 40% 1 14.06.2027 -
Yann Gboho Toulouse FC Active 128 / 143 65% 1 02.06.2027 Approve
Kota Tawaratsumida Albirex Niigata Active 133 / 136 66% 1 01.06.2027 Approve
Franculino Brighton Active 136 / 140 67% 1 01.06.2027 Approve
Roberto Fernández Braga Active 136 / 146 40% 3 31.05.2027 -
João Neves Paris Saint-Germain Active 169 / 173 40% 10 11.01.2027 -
Ferran Torres Paris Saint-Germain Active 172 / 160 40% 8 31.12.2026 Monitor
Gonçalo Ramos AC Milan Active 162 / 161 40% 1 31.12.2026 -
Ousmane Dembélé Paris Saint-Germain Active 183 / 187 40% 7 30.12.2026 -
James Maddison Tottenham Active 154 / 159 40% 5 29.12.2026 -
Achraf Hakimi Paris Saint-Germain Active 188 / 179 40% 8 29.12.2026 -
Timothy Fellaini KV Oostende Active 141 / 126 40% 1 29.12.2026 -
Matheus Nunes Manchester City Active 154 / 154 40% 1 29.12.2026 -
Théodore Lefèvre Tours Active 129 / 124 40% 1 29.12.2026 -
Óscar Mingueza Crystal Palace Active 148 / 152 40% 1 28.12.2026 -
Tiago Santos LOSC Lille Active 144 / 141 40% 1 28.12.2026 -
Osame Sahraoui LOSC Lille Active 136 / 150 40% 4 27.12.2026 -
Matthijs de Ligt Manchester United Active 155 / 155 40% 1 25.12.2026 -
Romain Perraud LOSC Lille Active 145 / 140 40% 1 25.12.2026 -
Kai Havertz Arsenal Active 156 / 165 40% 4 19.12.2026 -
Adrien Truffert Bournemouth Active 149 / 147 40% 2 18.12.2026 -
Nordi Mukiele Sunderland Active 143 / 148 40% 1 18.12.2026 -
Marc Guéhi Manchester City Active 164 / 161 40% 1 18.12.2026 -
Gonzalo Fulham Active 140 / 143 40% 1 15.12.2026 -
Brais Méndez RC Lens Active 143 / 150 40% 1 14.12.2026 -
Pau Víctor Braga Active 144 / 133 40% 2 13.12.2026 -
Carlos Álvarez Club America Active 140 / 144 40% 1 13.12.2026 -
Savinho Tottenham Active 149 / 156 40% 2 11.12.2026 -
Amad Manchester United Active 155 / 148 40% 1 11.12.2026 -
Moisés Caicedo Chelsea Active 175 / 175 40% 4 10.12.2026 -
Kevin Fulham Active 153 / 142 40% 1 09.12.2026 -
Agustín Palavecino Cruz Azul Active 130 / 134 40% 1 09.12.2026 -
Joaquin Seys Club Brugge Active 134 / 125 40% 1 09.12.2026 -
Youssouf Ndayishimiye OGC Nice Active 137 / 129 40% 1 09.12.2026 -
Noah Sadiki Sunderland Active 145 / 147 40% 1 09.12.2026 -
Mason Mount Manchester United Active 157 / 153 40% 3 05.12.2026 -
Ryan Gravenberch Liverpool Active 167 / 156 40% 2 04.12.2026 -
Willian Pacho Paris Saint-Germain Active 173 / 168 40% 1 04.12.2026 -
Erik Lira Cruz Azul Active 128 / 143 40% 1 02.12.2026 -
Teboho Mokoena Mamelodi Sundowns Active 123 / 144 40% 1 02.12.2026 -
Carlos Vicente Birmingham Active 145 / 132 40% 5 24.11.2026 -
Amadou Onana Aston Villa Active 164 / 159 40% 2 20.11.2026 -
Quinten Timber Crystal Palace Active 144 / 144 40% 1 20.11.2026 -
Matheus Cunha Manchester United Active 150 / 157 40% 2 18.11.2026 -
Jarrod Bowen West Ham United Active 161 / 146 40% 1 14.11.2026 -
Samson Baidoo RC Lens Active 141 / 146 40% 1 13.11.2026 -
Sven Botman Newcastle United Active 149 / 150 40% 1 13.11.2026 -
Denis Zakaria Monaco Active 159 / 143 40% 3 10.11.2026 -
Fabián Manchester United Active 165 / 165 40% 6 06.11.2026 -
Gabriel Martinelli Arsenal Active 161 / 165 40% 1 06.11.2026 -
Pedro Porro Tottenham Active 138 / 151 40% 1 06.11.2026 -
Manor Solomon West Ham United Active 140 / 143 40% 2 04.11.2026 -
Khvicha Kvaratskhelia Paris Saint-Germain Active 166 / 161 40% 4 30.10.2026 -
Nico González Newcastle United Active 160 / 164 40% 2 30.10.2026 -
Ludovic Blas Stade Rennais Active 138 / 133 40% 1 29.10.2026 -
Vitinha Paris Saint-Germain Active 178 / 176 40% 6 23.10.2026 -
Rúben Dias Manchester City Active 162 / 165 40% 1 16.10.2026 -
Adam Wharton Crystal Palace Active 155 / 146 40% 1 11.10.2026 -
Gabriel Arsenal Active 179 / 165 40% 2 05.10.2026 -
Jan Virgili Club Brugge Active 128 / 127 40% 1 05.10.2026 -
Tristan Degreef Anderlecht Active 121 / 119 40% 1 01.10.2026 -
Youri Tielemans Manchester United Active 158 / 158 40% 2 21.09.2026 -
Hugo Ekitiké Liverpool Active 168 / 165 40% 2 20.09.2026 -
Ousmane Diomande Nottingham Forest Active 142 / 161 40% 1 20.09.2026 -
Maxence Lacroix Chelsea Active 149 / 139 40% 1 19.09.2026 -
Allan Saint-Maximin Charlotte Football Club Active 135 / 139 40% 1 15.09.2026 -
Alex Scott Bournemouth Active 142 / 147 40% 1 13.09.2026 -
Bryan Mbeumo Manchester United Active 150 / 162 40% 2 11.09.2026 -
Ismaïla Sarr Crystal Palace Active 156 / 154 40% 1 11.09.2026 -
Martín Zubimendi Arsenal Active 168 / 169 40% 1 08.09.2026 -
Iliman N'Diaye Everton Active 161 / 150 40% 2 04.09.2026 -
Marcus Rashford Manchester United Active 149 / 164 40% 1 04.09.2026 -
Chris Lokesa Waasland-Beveren Active 121 / 127 40% 1 02.09.2026 -
Joško Gvardiol Manchester City Active 161 / 156 40% 1 25.08.2026 -
Florian Wirtz Liverpool Active 176 / 167 40% 1 24.08.2026 -
Morgan Rogers Chelsea Active 161 / 159 40% 1 18.08.2026 -
Xavier Biscayzacú Defensor Sporting Active 116 / 117 40% 1 17.08.2026 -
Luca Koleosho Paris FC Active 125 / 140 40% 1 17.08.2026 -